sensor_id;sensor_type;location;lat;lon;timestamp;pressure;altitude;pressure_sealevel;temperature;humidity
33185;BME280;19550;42.872;25.494;2023-05-20T00:01:03;96762.13;;;10.65;100.00
33185;BME280;19550;42.872;25.494;2023-05-20T00:03:30;96761.84;;;10.66;100.00
33185;BME280;19550;42.872;25.494;2023-05-20T00:05:57;96764.00;;;10.69;100.00
33185;BME280;19550;42.872;25.494;2023-05-20T00:08:24;96771.09;;;10.62;100.00
33185;BME280;19550;42.872;25.494;2023-05-20T00:10:51;96771.53;;;10.55;100.00
33185;BME280;19550;42.872;25.494;2023-05-20T00:13:19;96772.94;;;10.53;100.00
33185;BME280;19550;42.872;25.494;2023-05-20T00:15:46;96760.56;;;10.50;100.00
33185;BME280;19550;42.872;25.494;2023-05-20T00:18:13;96756.59;;;10.29;100.00
33185;BME280;19550;42.872;25.494;2023-05-20T00:20:39;96761.72;;;10.35;100.00
33185;BME280;19550;42.872;25.494;2023-05-20T00:23:06;96750.31;;;10.37;100.00
33185;BME280;19550;42.872;25.494;2023-05-20T00:25:33;96743.63;;;10.38;100.00
33185;BME280;19550;42.872;25.494;2023-05-20T00:28:00;96725.47;;;10.32;100.00
33185;BME280;19550;42.872;25.494;2023-05-20T00:30:28;96730.41;;;10.35;100.00
33185;BME280;19550;42.872;25.494;2023-05-20T00:32:55;96738.06;;;10.38;100.00
33185;BME280;19550;42.872;25.494;2023-05-20T00:35:22;96736.47;;;10.37;100.00
33185;BME280;19550;42.872;25.494;2023-05-20T00:37:49;96739.59;;;10.44;100.00
33185;BME280;19550;42.872;25.494;2023-05-20T00:40:16;96743.28;;;10.53;100.00
33185;BME280;19550;42.872;25.494;2023-05-20T00:42:42;96743.16;;;10.58;100.00
33185;BME280;19550;42.872;25.494;2023-05-20T00:45:10;96740.31;;;10.50;100.00
33185;BME280;19550;42.872;25.494;2023-05-20T00:47:38;96738.00;;;10.43;100.00
33185;BME280;19550;42.872;25.494;2023-05-20T00:50:06;96745.97;;;10.45;100.00
33185;BME280;19550;42.872;25.494;2023-05-20T00:52:35;96743.19;;;10.45;100.00
33185;BME280;19550;42.872;25.494;2023-05-20T00:55:03;96735.13;;;10.34;100.00
33185;BME280;19550;42.872;25.494;2023-05-20T00:57:30;96737.38;;;10.32;100.00
33185;BME280;19550;42.872;25.494;2023-05-20T00:59:57;96745.38;;;10.34;100.00
33185;BME280;19550;42.872;25.494;2023-05-20T01:02:24;96738.50;;;10.31;100.00
33185;BME280;19550;42.872;25.494;2023-05-20T01:04:53;96731.31;;;10.30;100.00
33185;BME280;19550;42.872;25.494;2023-05-20T01:07:21;96740.25;;;10.27;100.00
33185;BME280;19550;42.872;25.494;2023-05-20T01:09:48;96736.97;;;10.25;100.00
33185;BME280;19550;42.872;25.494;2023-05-20T01:12:22;96726.59;;;10.31;100.00
33185;BME280;19550;42.872;25.494;2023-05-20T01:14:55;96722.31;;;10.25;100.00
33185;BME280;19550;42.872;25.494;2023-05-20T01:17:26;96716.28;;;10.23;100.00
33185;BME280;19550;42.872;25.494;2023-05-20T01:19:59;96713.28;;;10.19;100.00
33185;BME280;19550;42.872;25.494;2023-05-20T01:22:28;96701.91;;;10.07;100.00
33185;BME280;19550;42.872;25.494;2023-05-20T01:24:55;96707.44;;;10.07;100.00
33185;BME280;19550;42.872;25.494;2023-05-20T01:27:22;96712.03;;;10.12;100.00
33185;BME280;19550;42.872;25.494;2023-05-20T01:29:51;96712.25;;;10.15;100.00
33185;BME280;19550;42.872;25.494;2023-05-20T01:32:21;96709.78;;;10.14;100.00
33185;BME280;19550;42.872;25.494;2023-05-20T01:34:49;96715.94;;;10.11;100.00
33185;BME280;19550;42.872;25.494;2023-05-20T01:37:18;96710.00;;;10.04;100.00
33185;BME280;19550;42.872;25.494;2023-05-20T01:39:49;96704.47;;;10.04;100.00
33185;BME280;19550;42.872;25.494;2023-05-20T01:42:18;96714.09;;;10.06;100.00
33185;BME280;19550;42.872;25.494;2023-05-20T01:44:46;96716.97;;;10.01;100.00
33185;BME280;19550;42.872;25.494;2023-05-20T01:47:12;96724.56;;;9.95;100.00
33185;BME280;19550;42.872;25.494;2023-05-20T01:49:39;96720.78;;;9.91;100.00
33185;BME280;19550;42.872;25.494;2023-05-20T01:52:07;96713.19;;;9.97;100.00
33185;BME280;19550;42.872;25.494;2023-05-20T01:54:34;96720.16;;;9.94;100.00
33185;BME280;19550;42.872;25.494;2023-05-20T01:57:02;96722.72;;;9.91;100.00
33185;BME280;19550;42.872;25.494;2023-05-20T01:59:29;96722.00;;;9.85;100.00
33185;BME280;19550;42.872;25.494;2023-05-20T02:01:56;96720.47;;;9.79;100.00
33185;BME280;19550;42.872;25.494;2023-05-20T02:04:23;96704.56;;;9.71;100.00
33185;BME280;19550;42.872;25.494;2023-05-20T02:06:49;96720.69;;;9.83;100.00
33185;BME280;19550;42.872;25.494;2023-05-20T02:09:17;96715.22;;;9.78;100.00
33185;BME280;19550;42.872;25.494;2023-05-20T02:11:44;96714.81;;;9.84;100.00
33185;BME280;19550;42.872;25.494;2023-05-20T02:14:12;96715.22;;;9.78;100.00
33185;BME280;19550;42.872;25.494;2023-05-20T02:16:39;96711.44;;;9.74;100.00
33185;BME280;19550;42.872;25.494;2023-05-20T02:19:06;96705.91;;;9.74;100.00
33185;BME280;19550;42.872;25.494;2023-05-20T02:21:38;96715.03;;;9.74;100.00
33185;BME280;19550;42.872;25.494;2023-05-20T02:24:05;96710.53;;;9.78;100.00
33185;BME280;19550;42.872;25.494;2023-05-20T02:26:32;96704.97;;;9.78;100.00
33185;BME280;19550;42.872;25.494;2023-05-20T02:28:59;96707.03;;;9.73;100.00
33185;BME280;19550;42.872;25.494;2023-05-20T02:31:27;96710.44;;;9.70;100.00
33185;BME280;19550;42.872;25.494;2023-05-20T02:33:54;96708.56;;;9.65;100.00
33185;BME280;19550;42.872;25.494;2023-05-20T02:36:21;96708.78;;;9.55;100.00
33185;BME280;19550;42.872;25.494;2023-05-20T02:38:48;96703.78;;;9.57;100.00
33185;BME280;19550;42.872;25.494;2023-05-20T02:41:15;96699.56;;;9.60;100.00
33185;BME280;19550;42.872;25.494;2023-05-20T02:43:42;96701.09;;;9.52;100.00
33185;BME280;19550;42.872;25.494;2023-05-20T02:46:10;96699.97;;;9.53;100.00
33185;BME280;19550;42.872;25.494;2023-05-20T02:48:38;96695.56;;;9.52;100.00
33185;BME280;19550;42.872;25.494;2023-05-20T02:51:05;96694.63;;;9.43;100.00
33185;BME280;19550;42.872;25.494;2023-05-20T02:53:32;96698.13;;;9.48;100.00
33185;BME280;19550;42.872;25.494;2023-05-20T02:55:58;96691.47;;;9.49;100.00
33185;BME280;19550;42.872;25.494;2023-05-20T02:58:25;96700.88;;;9.48;100.00
33185;BME280;19550;42.872;25.494;2023-05-20T03:00:53;96697.06;;;9.44;100.00
33185;BME280;19550;42.872;25.494;2023-05-20T03:03:22;96681.81;;;9.47;100.00
33185;BME280;19550;42.872;25.494;2023-05-20T03:05:51;96691.97;;;9.51;100.00
33185;BME280;19550;42.872;25.494;2023-05-20T03:08:19;96702.22;;;9.51;100.00
33185;BME280;19550;42.872;25.494;2023-05-20T03:10:46;96705.59;;;9.48;100.00
33185;BME280;19550;42.872;25.494;2023-05-20T03:13:13;96706.44;;;9.48;100.00
33185;BME280;19550;42.872;25.494;2023-05-20T03:15:41;96701.72;;;9.49;100.00
33185;BME280;19550;42.872;25.494;2023-05-20T03:18:10;96706.44;;;9.48;100.00
33185;BME280;19550;42.872;25.494;2023-05-20T03:20:38;96711.03;;;9.53;100.00
33185;BME280;19550;42.872;25.494;2023-05-20T03:23:07;96706.13;;;9.50;100.00
33185;BME280;19550;42.872;25.494;2023-05-20T03:25:35;96710.84;;;9.49;100.00
33185;BME280;19550;42.872;25.494;2023-05-20T03:28:02;96704.38;;;9.54;100.00
33185;BME280;19550;42.872;25.494;2023-05-20T03:30:29;96707.56;;;9.61;100.00
33185;BME280;19550;42.872;25.494;2023-05-20T03:32:56;96721.59;;;9.65;100.00
33185;BME280;19550;42.872;25.494;2023-05-20T03:35:23;96724.06;;;9.66;100.00
33185;BME280;19550;42.872;25.494;2023-05-20T03:37:50;96727.88;;;9.70;100.00
33185;BME280;19550;42.872;25.494;2023-05-20T03:40:19;96746.41;;;9.70;100.00
33185;BME280;19550;42.872;25.494;2023-05-20T03:42:46;96736.16;;;9.70;100.00
33185;BME280;19550;42.872;25.494;2023-05-20T03:45:14;96739.66;;;9.76;100.00
33185;BME280;19550;42.872;25.494;2023-05-20T03:47:41;96744.06;;;9.77;100.00
33185;BME280;19550;42.872;25.494;2023-05-20T03:50:08;96732.25;;;9.85;100.00
33185;BME280;19550;42.872;25.494;2023-05-20T03:52:35;96732.88;;;9.95;100.00
33185;BME280;19550;42.872;25.494;2023-05-20T03:55:03;96742.31;;;10.08;100.00
33185;BME280;19550;42.872;25.494;2023-05-20T03:57:31;96732.56;;;10.24;100.00
33185;BME280;19550;42.872;25.494;2023-05-20T03:59:58;96731.84;;;10.32;100.00
33185;BME280;19550;42.872;25.494;2023-05-20T04:02:26;96720.97;;;10.36;100.00
33185;BME280;19550;42.872;25.494;2023-05-20T04:04:53;96728.50;;;10.44;100.00
33185;BME280;19550;42.872;25.494;2023-05-20T04:07:22;96721.13;;;10.53;100.00
33185;BME280;19550;42.872;25.494;2023-05-20T04:09:48;96724.56;;;10.59;100.00
33185;BME280;19550;42.872;25.494;2023-05-20T04:12:16;96725.28;;;10.64;100.00
33185;BME280;19550;42.872;25.494;2023-05-20T04:14:46;96728.78;;;10.70;100.00
33185;BME280;19550;42.872;25.494;2023-05-20T04:17:14;96725.88;;;10.75;100.00
33185;BME280;19550;42.872;25.494;2023-05-20T04:19:41;96725.50;;;10.90;100.00
33185;BME280;19550;42.872;25.494;2023-05-20T04:22:09;96716.84;;;10.92;100.00
33185;BME280;19550;42.872;25.494;2023-05-20T04:24:36;96715.78;;;11.01;100.00
33185;BME280;19550;42.872;25.494;2023-05-20T04:27:03;96714.09;;;11.14;100.00
33185;BME280;19550;42.872;25.494;2023-05-20T04:29:30;96724.78;;;11.29;100.00
33185;BME280;19550;42.872;25.494;2023-05-20T04:31:59;96721.38;;;11.32;100.00
33185;BME280;19550;42.872;25.494;2023-05-20T04:34:28;96719.31;;;11.46;100.00
33185;BME280;19550;42.872;25.494;2023-05-20T04:36:59;96716.56;;;11.46;100.00
33185;BME280;19550;42.872;25.494;2023-05-20T04:39:26;96723.59;;;11.52;100.00
33185;BME280;19550;42.872;25.494;2023-05-20T04:41:53;96713.84;;;11.64;100.00
33185;BME280;19550;42.872;25.494;2023-05-20T04:44:20;96719.75;;;11.71;100.00
33185;BME280;19550;42.872;25.494;2023-05-20T04:46:49;96719.22;;;11.82;100.00
33185;BME280;19550;42.872;25.494;2023-05-20T04:49:17;96722.56;;;12.02;100.00
33185;BME280;19550;42.872;25.494;2023-05-20T04:51:44;96719.47;;;12.12;100.00
33185;BME280;19550;42.872;25.494;2023-05-20T04:54:11;96721.13;;;12.21;100.00
33185;BME280;19550;42.872;25.494;2023-05-20T04:56:38;96725.72;;;12.26;100.00
33185;BME280;19550;42.872;25.494;2023-05-20T04:59:06;96722.94;;;12.43;100.00
33185;BME280;19550;42.872;25.494;2023-05-20T05:01:34;96731.97;;;12.57;100.00
33185;BME280;19550;42.872;25.494;2023-05-20T05:04:01;96725.59;;;12.65;100.00
33185;BME280;19550;42.872;25.494;2023-05-20T05:06:29;96729.06;;;12.80;100.00
33185;BME280;19550;42.872;25.494;2023-05-20T05:08:56;96741.34;;;12.87;100.00
33185;BME280;19550;42.872;25.494;2023-05-20T05:11:23;96735.44;;;12.97;100.00
33185;BME280;19550;42.872;25.494;2023-05-20T05:13:50;96728.06;;;13.10;100.00
33185;BME280;19550;42.872;25.494;2023-05-20T05:16:17;96735.13;;;13.33;100.00
33185;BME280;19550;42.872;25.494;2023-05-20T05:18:44;96734.03;;;13.64;100.00
33185;BME280;19550;42.872;25.494;2023-05-20T05:21:11;96734.13;;;13.93;100.00
33185;BME280;19550;42.872;25.494;2023-05-20T05:23:39;96727.84;;;14.05;100.00
33185;BME280;19550;42.872;25.494;2023-05-20T05:26:07;96731.00;;;14.24;100.00
33185;BME280;19550;42.872;25.494;2023-05-20T05:28:33;96736.84;;;14.48;100.00
33185;BME280;19550;42.872;25.494;2023-05-20T05:31:00;96734.94;;;14.61;100.00
33185;BME280;19550;42.872;25.494;2023-05-20T05:33:27;96727.25;;;14.79;100.00
33185;BME280;19550;42.872;25.494;2023-05-20T05:35:54;96728.06;;;15.00;100.00
33185;BME280;19550;42.872;25.494;2023-05-20T05:38:23;96716.97;;;15.12;100.00
33185;BME280;19550;42.872;25.494;2023-05-20T05:40:51;96717.34;;;15.23;100.00
33185;BME280;19550;42.872;25.494;2023-05-20T05:43:18;96717.50;;;15.26;100.00
33185;BME280;19550;42.872;25.494;2023-05-20T05:45:45;96720.03;;;15.19;100.00
33185;BME280;19550;42.872;25.494;2023-05-20T05:48:12;96714.59;;;15.02;100.00
33185;BME280;19550;42.872;25.494;2023-05-20T05:50:43;96713.91;;;15.05;100.00
33185;BME280;19550;42.872;25.494;2023-05-20T05:53:10;96703.03;;;15.24;100.00
33185;BME280;19550;42.872;25.494;2023-05-20T05:55:37;96709.34;;;15.54;100.00
33185;BME280;19550;42.872;25.494;2023-05-20T05:58:05;96705.47;;;15.92;100.00
33185;BME280;19550;42.872;25.494;2023-05-20T06:00:32;96715.16;;;16.18;100.00
33185;BME280;19550;42.872;25.494;2023-05-20T06:02:59;96713.88;;;16.40;100.00
33185;BME280;19550;42.872;25.494;2023-05-20T06:05:26;96709.19;;;16.56;100.00
33185;BME280;19550;42.872;25.494;2023-05-20T06:07:53;96715.38;;;16.74;100.00
33185;BME280;19550;42.872;25.494;2023-05-20T06:10:20;96721.75;;;16.99;100.00
33185;BME280;19550;42.872;25.494;2023-05-20T06:12:47;96726.69;;;17.18;100.00
33185;BME280;19550;42.872;25.494;2023-05-20T06:15:15;96728.84;;;17.36;100.00
33185;BME280;19550;42.872;25.494;2023-05-20T06:17:42;96726.78;;;17.33;100.00
33185;BME280;19550;42.872;25.494;2023-05-20T06:20:10;96729.09;;;17.31;100.00
33185;BME280;19550;42.872;25.494;2023-05-20T06:22:37;96728.28;;;17.31;100.00
33185;BME280;19550;42.872;25.494;2023-05-20T06:25:04;96729.59;;;17.49;100.00
33185;BME280;19550;42.872;25.494;2023-05-20T06:27:31;96737.41;;;17.68;100.00
33185;BME280;19550;42.872;25.494;2023-05-20T06:29:58;96728.50;;;17.66;100.00
33185;BME280;19550;42.872;25.494;2023-05-20T06:32:26;96752.81;;;17.62;100.00
33185;BME280;19550;42.872;25.494;2023-05-20T06:34:53;96755.03;;;17.68;100.00
33185;BME280;19550;42.872;25.494;2023-05-20T06:37:20;96765.53;;;17.59;100.00
33185;BME280;19550;42.872;25.494;2023-05-20T06:39:48;96752.28;;;17.44;100.00
33185;BME280;19550;42.872;25.494;2023-05-20T06:42:18;96735.03;;;17.70;100.00
33185;BME280;19550;42.872;25.494;2023-05-20T06:44:45;96737.13;;;17.73;100.00
33185;BME280;19550;42.872;25.494;2023-05-20T06:47:13;96739.41;;;17.99;100.00
33185;BME280;19550;42.872;25.494;2023-05-20T06:49:42;96735.91;;;18.17;100.00
33185;BME280;19550;42.872;25.494;2023-05-20T06:52:08;96739.81;;;18.60;100.00
33185;BME280;19550;42.872;25.494;2023-05-20T06:54:36;96761.97;;;18.81;100.00
33185;BME280;19550;42.872;25.494;2023-05-20T06:57:06;96748.38;;;18.51;100.00
33185;BME280;19550;42.872;25.494;2023-05-20T06:59:33;96749.47;;;18.62;99.88
33185;BME280;19550;42.872;25.494;2023-05-20T07:02:00;96758.97;;;18.42;100.00
33185;BME280;19550;42.872;25.494;2023-05-20T07:04:27;96758.81;;;18.19;100.00
33185;BME280;19550;42.872;25.494;2023-05-20T07:06:56;96761.59;;;18.04;100.00
33185;BME280;19550;42.872;25.494;2023-05-20T07:09:23;96766.31;;;18.00;100.00
33185;BME280;19550;42.872;25.494;2023-05-20T07:11:49;96760.78;;;17.88;100.00
33185;BME280;19550;42.872;25.494;2023-05-20T07:14:16;96760.03;;;17.91;100.00
33185;BME280;19550;42.872;25.494;2023-05-20T07:16:43;96766.53;;;17.79;100.00
33185;BME280;19550;42.872;25.494;2023-05-20T07:19:10;96773.09;;;17.71;100.00
33185;BME280;19550;42.872;25.494;2023-05-20T07:21:37;96765.00;;;17.54;100.00
33185;BME280;19550;42.872;25.494;2023-05-20T07:24:06;96766.03;;;17.61;100.00
33185;BME280;19550;42.872;25.494;2023-05-20T07:26:32;96766.16;;;17.53;100.00
33185;BME280;19550;42.872;25.494;2023-05-20T07:29:01;96768.50;;;17.51;100.00
33185;BME280;19550;42.872;25.494;2023-05-20T07:31:28;96765.75;;;17.38;100.00
33185;BME280;19550;42.872;25.494;2023-05-20T07:33:55;96759.31;;;17.38;100.00
33185;BME280;19550;42.872;25.494;2023-05-20T07:36:22;96771.59;;;17.33;100.00
33185;BME280;19550;42.872;25.494;2023-05-20T07:38:49;96765.47;;;17.43;100.00
33185;BME280;19550;42.872;25.494;2023-05-20T07:41:17;96753.44;;;17.43;100.00
33185;BME280;19550;42.872;25.494;2023-05-20T07:43:45;96759.09;;;17.31;100.00
33185;BME280;19550;42.872;25.494;2023-05-20T07:46:12;96756.63;;;17.41;100.00
33185;BME280;19550;42.872;25.494;2023-05-20T07:48:40;96767.59;;;17.46;100.00
33185;BME280;19550;42.872;25.494;2023-05-20T07:51:08;96768.16;;;17.52;100.00
33185;BME280;19550;42.872;25.494;2023-05-20T07:53:34;96768.25;;;17.68;100.00
33185;BME280;19550;42.872;25.494;2023-05-20T07:56:01;96759.91;;;18.15;100.00
33185;BME280;19550;42.872;25.494;2023-05-20T07:58:30;96758.34;;;18.49;100.00
33185;BME280;19550;42.872;25.494;2023-05-20T08:00:57;96755.28;;;18.70;100.00
33185;BME280;19550;42.872;25.494;2023-05-20T08:03:23;96756.44;;;18.84;98.60
33185;BME280;19550;42.872;25.494;2023-05-20T08:05:51;96759.06;;;18.77;93.47
33185;BME280;19550;42.872;25.494;2023-05-20T08:08:18;96757.19;;;18.65;95.51
33185;BME280;19550;42.872;25.494;2023-05-20T08:10:44;96754.63;;;18.76;91.58
33185;BME280;19550;42.872;25.494;2023-05-20T08:13:11;96757.13;;;18.97;91.48
33185;BME280;19550;42.872;25.494;2023-05-20T08:15:39;96755.94;;;18.98;91.13
33185;BME280;19550;42.872;25.494;2023-05-20T08:18:06;96761.97;;;18.81;94.62
33185;BME280;19550;42.872;25.494;2023-05-20T08:20:33;96749.41;;;18.75;97.26
33185;BME280;19550;42.872;25.494;2023-05-20T08:23:00;96757.91;;;18.62;96.39
33185;BME280;19550;42.872;25.494;2023-05-20T08:25:27;96761.53;;;18.63;95.61
33185;BME280;19550;42.872;25.494;2023-05-20T08:27:54;96760.72;;;18.62;95.73
33185;BME280;19550;42.872;25.494;2023-05-20T08:30:21;96754.47;;;18.69;96.38
33185;BME280;19550;42.872;25.494;2023-05-20T08:32:49;96760.63;;;18.75;92.61
33185;BME280;19550;42.872;25.494;2023-05-20T08:35:16;96764.78;;;18.81;93.36
33185;BME280;19550;42.872;25.494;2023-05-20T08:37:43;96763.03;;;18.92;91.10
33185;BME280;19550;42.872;25.494;2023-05-20T08:40:11;96758.97;;;18.89;90.63
33185;BME280;19550;42.872;25.494;2023-05-20T08:42:40;96767.31;;;18.86;92.70
33185;BME280;19550;42.872;25.494;2023-05-20T08:45:10;96754.19;;;18.74;91.45
33185;BME280;19550;42.872;25.494;2023-05-20T08:47:38;96748.19;;;18.76;91.71
33185;BME280;19550;42.872;25.494;2023-05-20T08:50:09;96744.19;;;18.92;91.37
33185;BME280;19550;42.872;25.494;2023-05-20T08:52:36;96747.59;;;19.01;90.98
33185;BME280;19550;42.872;25.494;2023-05-20T08:55:06;96745.03;;;19.12;90.82
33185;BME280;19550;42.872;25.494;2023-05-20T08:57:36;96753.38;;;19.09;90.66
33185;BME280;19550;42.872;25.494;2023-05-20T09:00:04;96756.13;;;19.05;88.80
33185;BME280;19550;42.872;25.494;2023-05-20T09:02:37;96754.03;;;19.02;89.21
33185;BME280;19550;42.872;25.494;2023-05-20T09:05:05;96758.53;;;18.87;89.72
33185;BME280;19550;42.872;25.494;2023-05-20T09:07:34;96753.63;;;18.84;88.68
33185;BME280;19550;42.872;25.494;2023-05-20T09:10:01;96760.63;;;18.75;89.43
33185;BME280;19550;42.872;25.494;2023-05-20T09:12:28;96764.88;;;18.53;88.64
33185;BME280;19550;42.872;25.494;2023-05-20T09:14:55;96768.31;;;18.46;91.55
33185;BME280;19550;42.872;25.494;2023-05-20T09:17:22;96753.81;;;18.44;94.37
33185;BME280;19550;42.872;25.494;2023-05-20T09:19:49;96748.59;;;18.27;100.00
33185;BME280;19550;42.872;25.494;2023-05-20T09:22:21;96757.38;;;18.25;100.00
33185;BME280;19550;42.872;25.494;2023-05-20T09:24:50;96751.66;;;18.22;100.00
33185;BME280;19550;42.872;25.494;2023-05-20T09:27:17;96743.63;;;18.20;100.00
33185;BME280;19550;42.872;25.494;2023-05-20T09:29:46;96742.88;;;18.23;100.00
33185;BME280;19550;42.872;25.494;2023-05-20T09:32:13;96741.81;;;18.28;100.00
33185;BME280;19550;42.872;25.494;2023-05-20T09:34:40;96736.72;;;18.34;100.00
33185;BME280;19550;42.872;25.494;2023-05-20T09:37:08;96730.19;;;18.45;97.71
33185;BME280;19550;42.872;25.494;2023-05-20T09:39:42;96736.34;;;18.35;100.00
33185;BME280;19550;42.872;25.494;2023-05-20T09:42:20;96739.00;;;18.28;96.96
33185;BME280;19550;42.872;25.494;2023-05-20T09:44:49;96737.44;;;18.31;98.79
33185;BME280;19550;42.872;25.494;2023-05-20T09:47:18;96720.88;;;18.41;100.00
33185;BME280;19550;42.872;25.494;2023-05-20T09:49:45;96723.31;;;18.43;100.00
33185;BME280;19550;42.872;25.494;2023-05-20T09:52:14;96723.22;;;18.39;98.07
33185;BME280;19550;42.872;25.494;2023-05-20T09:54:42;96728.03;;;18.39;100.00
33185;BME280;19550;42.872;25.494;2023-05-20T09:57:11;96722.47;;;18.42;100.00
33185;BME280;19550;42.872;25.494;2023-05-20T09:59:40;96723.44;;;18.15;100.00
33185;BME280;19550;42.872;25.494;2023-05-20T10:02:07;96723.75;;;17.98;100.00
33185;BME280;19550;42.872;25.494;2023-05-20T10:04:36;96724.66;;;18.02;100.00
33185;BME280;19550;42.872;25.494;2023-05-20T10:10:23;96712.47;;;18.25;100.00
33185;BME280;19550;42.872;25.494;2023-05-20T10:13:00;96704.41;;;18.40;100.00
33185;BME280;19550;42.872;25.494;2023-05-20T10:15:37;96702.03;;;18.57;100.00
33185;BME280;19550;42.872;25.494;2023-05-20T10:18:19;96696.78;;;18.56;99.40
33185;BME280;19550;42.872;25.494;2023-05-20T10:20:49;96704.63;;;18.50;97.90
33185;BME280;19550;42.872;25.494;2023-05-20T10:23:20;96710.47;;;18.57;95.63
33185;BME280;19550;42.872;25.494;2023-05-20T10:25:51;96709.91;;;18.68;98.04
33185;BME280;19550;42.872;25.494;2023-05-20T10:28:27;96699.50;;;18.68;100.00
33185;BME280;19550;42.872;25.494;2023-05-20T10:30:56;96696.63;;;18.84;96.10
33185;BME280;19550;42.872;25.494;2023-05-20T10:33:24;96705.19;;;18.72;90.04
33185;BME280;19550;42.872;25.494;2023-05-20T10:35:52;96693.28;;;18.78;91.38
33185;BME280;19550;42.872;25.494;2023-05-20T10:38:19;96689.84;;;18.85;91.60
33185;BME280;19550;42.872;25.494;2023-05-20T10:40:46;96686.31;;;19.07;90.10
33185;BME280;19550;42.872;25.494;2023-05-20T10:43:15;96686.31;;;19.26;85.17
33185;BME280;19550;42.872;25.494;2023-05-20T10:45:47;96685.56;;;19.68;82.87
33185;BME280;19550;42.872;25.494;2023-05-20T10:48:27;96681.16;;;20.12;79.61
33185;BME280;19550;42.872;25.494;2023-05-20T10:50:55;96684.22;;;20.49;81.08
33185;BME280;19550;42.872;25.494;2023-05-20T10:53:24;96681.25;;;20.65;76.22
33185;BME280;19550;42.872;25.494;2023-05-20T10:55:52;96683.41;;;20.75;75.07
33185;BME280;19550;42.872;25.494;2023-05-20T10:58:20;96681.34;;;20.98;74.83
33185;BME280;19550;42.872;25.494;2023-05-20T11:00:48;96684.63;;;21.04;74.30
33185;BME280;19550;42.872;25.494;2023-05-20T11:03:16;96680.34;;;21.14;75.69
33185;BME280;19550;42.872;25.494;2023-05-20T11:05:46;96675.66;;;21.25;74.48
33185;BME280;19550;42.872;25.494;2023-05-20T11:08:13;96675.13;;;21.46;74.99
33185;BME280;19550;42.872;25.494;2023-05-20T11:10:41;96672.84;;;21.58;72.38
33185;BME280;19550;42.872;25.494;2023-05-20T11:13:11;96671.84;;;21.77;73.27
33185;BME280;19550;42.872;25.494;2023-05-20T11:15:39;96668.34;;;21.87;74.22
33185;BME280;19550;42.872;25.494;2023-05-20T11:18:06;96665.13;;;22.29;72.01
33185;BME280;19550;42.872;25.494;2023-05-20T11:20:33;96660.13;;;22.59;66.07
33185;BME280;19550;42.872;25.494;2023-05-20T11:23:01;96662.38;;;22.94;64.17
33185;BME280;19550;42.872;25.494;2023-05-20T11:25:28;96652.09;;;23.37;63.00
33185;BME280;19550;42.872;25.494;2023-05-20T11:27:55;96646.53;;;23.52;63.09
33185;BME280;19550;42.872;25.494;2023-05-20T11:30:23;96654.28;;;23.72;66.39
33185;BME280;19550;42.872;25.494;2023-05-20T11:32:57;96660.72;;;23.59;64.22
33185;BME280;19550;42.872;25.494;2023-05-20T11:35:25;96659.84;;;23.48;67.68
33185;BME280;19550;42.872;25.494;2023-05-20T11:37:54;96664.78;;;22.89;65.52
33185;BME280;19550;42.872;25.494;2023-05-20T11:40:26;96664.41;;;22.43;70.99
33185;BME280;19550;42.872;25.494;2023-05-20T11:42:54;96669.81;;;22.11;71.13
33185;BME280;19550;42.872;25.494;2023-05-20T11:45:22;96662.66;;;21.84;71.82
33185;BME280;19550;42.872;25.494;2023-05-20T11:47:59;96660.72;;;21.95;73.49
33185;BME280;19550;42.872;25.494;2023-05-20T11:50:26;96659.84;;;22.28;74.87
33185;BME280;19550;42.872;25.494;2023-05-20T11:52:57;96655.88;;;22.36;69.13
33185;BME280;19550;42.872;25.494;2023-05-20T11:55:26;96656.44;;;22.52;68.46
33185;BME280;19550;42.872;25.494;2023-05-20T11:57:53;96652.97;;;21.85;67.80
33185;BME280;19550;42.872;25.494;2023-05-20T12:00:22;96650.53;;;21.79;69.58
33185;BME280;19550;42.872;25.494;2023-05-20T12:02:49;96644.06;;;21.79;70.00
33185;BME280;19550;42.872;25.494;2023-05-20T12:05:16;96640.78;;;22.14;70.42
33185;BME280;19550;42.872;25.494;2023-05-20T12:07:43;96633.25;;;21.88;69.83
33185;BME280;19550;42.872;25.494;2023-05-20T12:10:10;96628.78;;;21.84;69.17
33185;BME280;19550;42.872;25.494;2023-05-20T12:12:39;96627.44;;;22.11;74.02
33185;BME280;19550;42.872;25.494;2023-05-20T12:15:06;96619.16;;;22.32;74.22
33185;BME280;19550;42.872;25.494;2023-05-20T12:17:43;96628.19;;;22.04;70.69
33185;BME280;19550;42.872;25.494;2023-05-20T12:20:12;96623.06;;;22.17;70.06
33185;BME280;19550;42.872;25.494;2023-05-20T12:22:40;96619.16;;;22.32;70.27
33185;BME280;19550;42.872;25.494;2023-05-20T12:25:09;96608.69;;;22.98;68.03
33185;BME280;19550;42.872;25.494;2023-05-20T12:27:36;96602.94;;;23.95;66.11
33185;BME280;19550;42.872;25.494;2023-05-20T12:30:06;96606.59;;;24.70;64.21
33185;BME280;19550;42.872;25.494;2023-05-20T12:32:34;96606.63;;;24.42;65.94
33185;BME280;19550;42.872;25.494;2023-05-20T12:35:01;96602.94;;;23.92;64.67
33185;BME280;19550;42.872;25.494;2023-05-20T12:37:28;96604.50;;;23.61;65.16
33185;BME280;19550;42.872;25.494;2023-05-20T12:39:55;96600.31;;;23.23;67.88
33185;BME280;19550;42.872;25.494;2023-05-20T12:42:21;96590.66;;;23.31;67.58
33185;BME280;19550;42.872;25.494;2023-05-20T12:44:48;96588.56;;;23.14;69.45
33185;BME280;19550;42.872;25.494;2023-05-20T12:47:16;96588.59;;;23.24;67.84
33185;BME280;19550;42.872;25.494;2023-05-20T12:49:43;96587.31;;;23.08;69.70
33185;BME280;19550;42.872;25.494;2023-05-20T12:52:10;96578.03;;;23.04;70.61